sensor_id;sensor_type;location;lat;lon;timestamp;pressure;altitude;pressure_sealevel;temperature;humidity
4745;BME280;2386;42.138;24.746;2023-05-07T00:01:41;99875.09;;;16.60;100.00
4745;BME280;2386;42.138;24.746;2023-05-07T00:04:07;99869.59;;;16.55;100.00
4745;BME280;2386;42.138;24.746;2023-05-07T00:06:33;99877.84;;;16.60;100.00
4745;BME280;2386;42.138;24.746;2023-05-07T00:08:58;99878.06;;;16.53;100.00
4745;BME280;2386;42.138;24.746;2023-05-07T00:11:25;99869.84;;;16.53;100.00
4745;BME280;2386;42.138;24.746;2023-05-07T00:13:51;99869.06;;;16.58;100.00
4745;BME280;2386;42.138;24.746;2023-05-07T00:16:16;99870.72;;;16.59;100.00
4745;BME280;2386;42.138;24.746;2023-05-07T00:18:41;99864.69;;;16.57;100.00
4745;BME280;2386;42.138;24.746;2023-05-07T00:21:07;99872.94;;;16.62;100.00
4745;BME280;2386;42.138;24.746;2023-05-07T00:23:32;99870.19;;;16.62;100.00
4745;BME280;2386;42.138;24.746;2023-05-07T00:25:58;99871.28;;;16.61;100.00
4745;BME280;2386;42.138;24.746;2023-05-07T00:28:23;99865.28;;;16.64;100.00
4745;BME280;2386;42.138;24.746;2023-05-07T00:30:48;99870.19;;;16.62;100.00
4745;BME280;2386;42.138;24.746;2023-05-07T00:33:14;99866.38;;;16.63;100.00
4745;BME280;2386;42.138;24.746;2023-05-07T00:35:39;99867.78;;;16.65;100.00
4745;BME280;2386;42.138;24.746;2023-05-07T00:38:04;99860.38;;;16.66;100.00
4745;BME280;2386;42.138;24.746;2023-05-07T00:40:30;99860.97;;;16.73;100.00
4745;BME280;2386;42.138;24.746;2023-05-07T00:42:55;99873.59;;;16.74;100.00
4745;BME280;2386;42.138;24.746;2023-05-07T00:45:28;99875.22;;;16.70;100.00
4745;BME280;2386;42.138;24.746;2023-05-07T00:47:58;99873.84;;;16.72;100.00
4745;BME280;2386;42.138;24.746;2023-05-07T00:50:25;99870.00;;;16.68;100.00
4745;BME280;2386;42.138;24.746;2023-05-07T00:52:51;99872.75;;;16.73;100.00
4745;BME280;2386;42.138;24.746;2023-05-07T00:55:17;99871.41;;;16.76;100.00
4745;BME280;2386;42.138;24.746;2023-05-07T00:57:43;99874.91;;;16.66;100.00
4745;BME280;2386;42.138;24.746;2023-05-07T01:00:10;99871.25;;;16.56;100.00
4745;BME280;2386;42.138;24.746;2023-05-07T01:02:38;99879.47;;;16.56;100.00
4745;BME280;2386;42.138;24.746;2023-05-07T01:05:04;99878.34;;;16.52;100.00
4745;BME280;2386;42.138;24.746;2023-05-07T01:07:31;99867.66;;;16.50;100.00
4745;BME280;2386;42.138;24.746;2023-05-07T01:09:58;99874.75;;;16.46;100.00
4745;BME280;2386;42.138;24.746;2023-05-07T01:12:24;99871.47;;;16.49;100.00
4745;BME280;2386;42.138;24.746;2023-05-07T01:14:50;99874.44;;;16.42;100.00
4745;BME280;2386;42.138;24.746;2023-05-07T01:17:16;99874.47;;;16.48;100.00
4745;BME280;2386;42.138;24.746;2023-05-07T01:19:42;99867.06;;;16.43;100.00
4745;BME280;2386;42.138;24.746;2023-05-07T01:22:09;99879.94;;;16.48;100.00
4745;BME280;2386;42.138;24.746;2023-05-07T01:24:36;99864.03;;;16.44;100.00
4745;BME280;2386;42.138;24.746;2023-05-07T01:27:02;99862.16;;;16.50;100.00
4745;BME280;2386;42.138;24.746;2023-05-07T01:29:28;99859.69;;;16.49;100.00
4745;BME280;2386;42.138;24.746;2023-05-07T01:31:55;99870.41;;;16.55;100.00
4745;BME280;2386;42.138;24.746;2023-05-07T01:34:21;99863.78;;;16.46;100.00
4745;BME280;2386;42.138;24.746;2023-05-07T01:36:48;99867.00;;;16.38;100.00
4745;BME280;2386;42.138;24.746;2023-05-07T01:39:15;99868.09;;;16.32;100.00
4745;BME280;2386;42.138;24.746;2023-05-07T01:41:42;99878.78;;;16.33;100.00
4745;BME280;2386;42.138;24.746;2023-05-07T01:44:08;99879.03;;;16.32;100.00
4745;BME280;2386;42.138;24.746;2023-05-07T01:46:35;99853.03;;;16.34;100.00
4745;BME280;2386;42.138;24.746;2023-05-07T01:49:00;99861.78;;;16.36;100.00
4745;BME280;2386;42.138;24.746;2023-05-07T01:51:26;99867.06;;;16.43;100.00
4745;BME280;2386;42.138;24.746;2023-05-07T01:53:52;99867.88;;;16.43;100.00
4745;BME280;2386;42.138;24.746;2023-05-07T01:56:18;99866.19;;;16.37;100.00
4745;BME280;2386;42.138;24.746;2023-05-07T01:58:45;99868.09;;;16.32;100.00
4745;BME280;2386;42.138;24.746;2023-05-07T02:01:12;99867.50;;;16.25;100.00
4745;BME280;2386;42.138;24.746;2023-05-07T02:03:38;99859.50;;;16.18;100.00
4745;BME280;2386;42.138;24.746;2023-05-07T02:06:03;99865.63;;;16.30;100.00
4745;BME280;2386;42.138;24.746;2023-05-07T02:08:28;99858.50;;;16.34;100.00
4745;BME280;2386;42.138;24.746;2023-05-07T02:10:55;99855.22;;;16.32;100.00
4745;BME280;2386;42.138;24.746;2023-05-07T02:13:20;99857.44;;;16.40;100.00
4745;BME280;2386;42.138;24.746;2023-05-07T02:15:47;99859.09;;;16.41;100.00
4745;BME280;2386;42.138;24.746;2023-05-07T02:18:16;99850.88;;;16.41;100.00
4745;BME280;2386;42.138;24.746;2023-05-07T02:20:42;99854.75;;;16.46;100.00
4745;BME280;2386;42.138;24.746;2023-05-07T02:23:07;99855.16;;;16.22;100.00
4745;BME280;2386;42.138;24.746;2023-05-07T02:25:33;99858.41;;;16.19;100.00
4745;BME280;2386;42.138;24.746;2023-05-07T02:27:58;99857.09;;;16.27;100.00
4745;BME280;2386;42.138;24.746;2023-05-07T02:30:24;99855.75;;;16.34;100.00
4745;BME280;2386;42.138;24.746;2023-05-07T02:32:50;99851.84;;;16.20;100.00
4745;BME280;2386;42.138;24.746;2023-05-07T02:35:16;99845.25;;;16.16;100.00
4745;BME280;2386;42.138;24.746;2023-05-07T02:37:41;99848.16;;;16.04;100.00
4745;BME280;2386;42.138;24.746;2023-05-07T02:40:07;99856.09;;;16.06;100.00
4745;BME280;2386;42.138;24.746;2023-05-07T02:42:32;99859.09;;;16.04;100.00
4745;BME280;2386;42.138;24.746;2023-05-07T02:44:58;99859.28;;;15.93;100.00
4745;BME280;2386;42.138;24.746;2023-05-07T02:47:24;99861.22;;;15.97;100.00
4745;BME280;2386;42.138;24.746;2023-05-07T02:49:52;99842.50;;;15.84;100.00
4745;BME280;2386;42.138;24.746;2023-05-07T02:52:18;99844.53;;;15.67;100.00
4745;BME280;2386;42.138;24.746;2023-05-07T02:54:43;99852.00;;;15.76;100.00
4745;BME280;2386;42.138;24.746;2023-05-07T02:57:08;99846.22;;;15.73;100.00
4745;BME280;2386;42.138;24.746;2023-05-07T02:59:34;99846.34;;;15.56;100.00
4745;BME280;2386;42.138;24.746;2023-05-07T03:01:59;99849.94;;;15.62;100.00
4745;BME280;2386;42.138;24.746;2023-05-07T03:04:24;99837.66;;;15.59;100.00
4745;BME280;2386;42.138;24.746;2023-05-07T03:06:50;99841.53;;;15.68;100.00
4745;BME280;2386;42.138;24.746;2023-05-07T03:09:15;99845.91;;;15.69;100.00
4745;BME280;2386;42.138;24.746;2023-05-07T03:11:41;99830.53;;;15.63;100.00
4745;BME280;2386;42.138;24.746;2023-05-07T03:14:06;99834.78;;;15.49;100.00
4745;BME280;2386;42.138;24.746;2023-05-07T03:16:32;99843.03;;;15.54;100.00
4745;BME280;2386;42.138;24.746;2023-05-07T03:18:57;99844.13;;;15.53;100.00
4745;BME280;2386;42.138;24.746;2023-05-07T03:21:23;99836.69;;;15.49;100.00
4745;BME280;2386;42.138;24.746;2023-05-07T03:23:48;99840.25;;;15.49;100.00
4745;BME280;2386;42.138;24.746;2023-05-07T03:26:14;99846.38;;;15.61;100.00
4745;BME280;2386;42.138;24.746;2023-05-07T03:28:39;99852.44;;;15.63;100.00
4745;BME280;2386;42.138;24.746;2023-05-07T03:31:05;99844.47;;;15.57;100.00
4745;BME280;2386;42.138;24.746;2023-05-07T03:33:33;99841.47;;;15.58;100.00
4745;BME280;2386;42.138;24.746;2023-05-07T03:35:58;99844.72;;;15.60;100.00
4745;BME280;2386;42.138;24.746;2023-05-07T03:38:24;99857.78;;;15.53;100.00
4745;BME280;2386;42.138;24.746;2023-05-07T03:40:49;99855.63;;;15.55;100.00
4745;BME280;2386;42.138;24.746;2023-05-07T03:43:14;99859.31;;;15.44;100.00
4745;BME280;2386;42.138;24.746;2023-05-07T03:45:40;99851.00;;;15.34;100.00
4745;BME280;2386;42.138;24.746;2023-05-07T03:48:05;99860.16;;;15.23;100.00
4745;BME280;2386;42.138;24.746;2023-05-07T03:50:31;99852.94;;;15.11;100.00
4745;BME280;2386;42.138;24.746;2023-05-07T03:52:56;99866.91;;;15.15;100.00
4745;BME280;2386;42.138;24.746;2023-05-07T03:55:21;99866.16;;;15.20;100.00
4745;BME280;2386;42.138;24.746;2023-05-07T03:57:47;99856.81;;;15.16;100.00
4745;BME280;2386;42.138;24.746;2023-05-07T04:00:13;99863.91;;;15.17;100.00
4745;BME280;2386;42.138;24.746;2023-05-07T04:02:38;99869.19;;;15.23;100.00
4745;BME280;2386;42.138;24.746;2023-05-07T04:05:04;99874.47;;;15.30;100.00
4745;BME280;2386;42.138;24.746;2023-05-07T04:07:29;99857.94;;;15.20;100.00
4745;BME280;2386;42.138;24.746;2023-05-07T04:09:55;99860.44;;;15.21;100.00
4745;BME280;2386;42.138;24.746;2023-05-07T04:12:20;99856.41;;;15.29;100.00
4745;BME280;2386;42.138;24.746;2023-05-07T04:14:45;99860.09;;;15.39;100.00
4745;BME280;2386;42.138;24.746;2023-05-07T04:17:11;99855.25;;;15.47;100.00
4745;BME280;2386;42.138;24.746;2023-05-07T04:19:36;99860.47;;;15.48;100.00
4745;BME280;2386;42.138;24.746;2023-05-07T04:22:02;99853.97;;;15.54;100.00
4745;BME280;2386;42.138;24.746;2023-05-07T04:24:27;99866.91;;;15.64;100.00
4745;BME280;2386;42.138;24.746;2023-05-07T04:26:53;99873.59;;;15.73;100.00
4745;BME280;2386;42.138;24.746;2023-05-07T04:29:18;99872.41;;;15.64;100.00
4745;BME280;2386;42.138;24.746;2023-05-07T04:31:44;99858.59;;;15.54;100.00
4745;BME280;2386;42.138;24.746;2023-05-07T04:34:12;99863.72;;;15.45;100.00
4745;BME280;2386;42.138;24.746;2023-05-07T04:36:38;99879.03;;;15.46;100.00
4745;BME280;2386;42.138;24.746;2023-05-07T04:39:04;99872.69;;;15.40;100.00
4745;BME280;2386;42.138;24.746;2023-05-07T04:41:29;99862.31;;;15.42;100.00
4745;BME280;2386;42.138;24.746;2023-05-07T04:43:55;99863.03;;;15.33;100.00
4745;BME280;2386;42.138;24.746;2023-05-07T04:46:22;99859.63;;;15.48;100.00
4745;BME280;2386;42.138;24.746;2023-05-07T04:48:47;99857.03;;;15.36;100.00
4745;BME280;2386;42.138;24.746;2023-05-07T04:51:12;99875.78;;;15.49;100.00
4745;BME280;2386;42.138;24.746;2023-05-07T04:53:38;99872.03;;;15.55;100.00
4745;BME280;2386;42.138;24.746;2023-05-07T04:56:03;99871.53;;;15.58;100.00
4745;BME280;2386;42.138;24.746;2023-05-07T04:58:29;99885.31;;;15.47;100.00
4745;BME280;2386;42.138;24.746;2023-05-07T05:00:57;99875.00;;;15.54;100.00
4745;BME280;2386;42.138;24.746;2023-05-07T05:03:23;99878.25;;;15.51;100.00
4745;BME280;2386;42.138;24.746;2023-05-07T05:05:52;99881.31;;;15.54;100.00
4745;BME280;2386;42.138;24.746;2023-05-07T05:08:18;99879.16;;;15.56;100.00
4745;BME280;2386;42.138;24.746;2023-05-07T05:10:44;99879.31;;;15.71;100.00
4745;BME280;2386;42.138;24.746;2023-05-07T05:13:09;99877.41;;;15.72;100.00
4745;BME280;2386;42.138;24.746;2023-05-07T05:15:38;99874.97;;;15.75;100.00
4745;BME280;2386;42.138;24.746;2023-05-07T05:18:03;99883.28;;;15.86;100.00
4745;BME280;2386;42.138;24.746;2023-05-07T05:20:28;99871.22;;;15.82;100.00
4745;BME280;2386;42.138;24.746;2023-05-07T05:22:54;99887.16;;;15.90;100.00
4745;BME280;2386;42.138;24.746;2023-05-07T05:25:20;99876.31;;;16.00;100.00
4745;BME280;2386;42.138;24.746;2023-05-07T05:27:45;99888.44;;;16.09;100.00
4745;BME280;2386;42.138;24.746;2023-05-07T05:30:11;99890.69;;;16.17;100.00
4745;BME280;2386;42.138;24.746;2023-05-07T05:32:36;99886.47;;;16.04;100.00
4745;BME280;2386;42.138;24.746;2023-05-07T05:35:02;99896.16;;;16.17;100.00
4745;BME280;2386;42.138;24.746;2023-05-07T05:37:27;99895.13;;;16.23;100.00
4745;BME280;2386;42.138;24.746;2023-05-07T05:39:53;99891.28;;;16.24;100.00
4745;BME280;2386;42.138;24.746;2023-05-07T05:42:19;99902.84;;;16.31;100.00
4745;BME280;2386;42.138;24.746;2023-05-07T05:44:45;99894.13;;;16.39;100.00
4745;BME280;2386;42.138;24.746;2023-05-07T05:47:10;99897.16;;;16.43;100.00
4745;BME280;2386;42.138;24.746;2023-05-07T05:49:36;99906.06;;;16.60;100.00
4745;BME280;2386;42.138;24.746;2023-05-07T05:52:01;99901.41;;;16.61;100.00
4745;BME280;2386;42.138;24.746;2023-05-07T05:54:27;99901.47;;;16.66;100.00
4745;BME280;2386;42.138;24.746;2023-05-07T05:56:52;99914.09;;;16.67;100.00
4745;BME280;2386;42.138;24.746;2023-05-07T05:59:17;99909.63;;;16.61;100.00
4745;BME280;2386;42.138;24.746;2023-05-07T06:01:43;99912.16;;;16.67;100.00
4745;BME280;2386;42.138;24.746;2023-05-07T06:04:08;99915.25;;;16.76;98.65
4745;BME280;2386;42.138;24.746;2023-05-07T06:06:34;99910.91;;;16.85;97.29
4745;BME280;2386;42.138;24.746;2023-05-07T06:08:59;99910.38;;;16.88;96.65
4745;BME280;2386;42.138;24.746;2023-05-07T06:11:25;99917.06;;;17.07;95.16
4745;BME280;2386;42.138;24.746;2023-05-07T06:13:50;99918.16;;;17.06;96.21
4745;BME280;2386;42.138;24.746;2023-05-07T06:16:16;99917.59;;;17.09;96.13
4745;BME280;2386;42.138;24.746;2023-05-07T06:18:41;99913.78;;;17.05;95.06
4745;BME280;2386;42.138;24.746;2023-05-07T06:21:07;99915.19;;;17.18;93.64
4745;BME280;2386;42.138;24.746;2023-05-07T06:23:32;99908.59;;;17.19;93.63
4745;BME280;2386;42.138;24.746;2023-05-07T06:25:57;99916.63;;;17.31;93.32
4745;BME280;2386;42.138;24.746;2023-05-07T06:28:23;99911.19;;;17.41;92.91
4745;BME280;2386;42.138;24.746;2023-05-07T06:30:48;99910.66;;;17.49;91.39
4745;BME280;2386;42.138;24.746;2023-05-07T06:33:15;99915.63;;;17.57;91.13
4745;BME280;2386;42.138;24.746;2023-05-07T06:35:41;99900.56;;;17.65;91.67
4745;BME280;2386;42.138;24.746;2023-05-07T06:38:06;99903.09;;;17.77;90.16
4745;BME280;2386;42.138;24.746;2023-05-07T06:40:31;99910.22;;;17.88;89.72
4745;BME280;2386;42.138;24.746;2023-05-07T06:42:57;99897.06;;;17.95;90.23
4745;BME280;2386;42.138;24.746;2023-05-07T06:45:22;99898.72;;;18.01;89.75
4745;BME280;2386;42.138;24.746;2023-05-07T06:47:48;99903.66;;;18.04;88.46
4745;BME280;2386;42.138;24.746;2023-05-07T06:50:14;99901.44;;;17.96;87.12
4745;BME280;2386;42.138;24.746;2023-05-07T06:52:41;99901.75;;;18.04;86.25
4745;BME280;2386;42.138;24.746;2023-05-07T06:55:07;99902.84;;;18.14;85.88
4745;BME280;2386;42.138;24.746;2023-05-07T06:57:33;99904.50;;;18.25;86.17
4745;BME280;2386;42.138;24.746;2023-05-07T06:59:58;99912.19;;;18.33;85.32
4745;BME280;2386;42.138;24.746;2023-05-07T07:02:23;99908.06;;;18.41;84.53
4745;BME280;2386;42.138;24.746;2023-05-07T07:04:49;99910.00;;;18.45;85.14
4745;BME280;2386;42.138;24.746;2023-05-07T07:07:14;99905.06;;;18.52;83.42
4745;BME280;2386;42.138;24.746;2023-05-07T07:09:39;99907.25;;;18.50;82.17
4745;BME280;2386;42.138;24.746;2023-05-07T07:12:05;99917.38;;;18.60;81.72
4745;BME280;2386;42.138;24.746;2023-05-07T07:14:30;99908.06;;;18.61;81.33
4745;BME280;2386;42.138;24.746;2023-05-07T07:16:56;99908.34;;;18.64;81.33
4745;BME280;2386;42.138;24.746;2023-05-07T07:19:21;99910.28;;;18.49;82.48
4745;BME280;2386;42.138;24.746;2023-05-07T07:21:46;99917.97;;;18.57;81.74
4745;BME280;2386;42.138;24.746;2023-05-07T07:24:13;99911.66;;;18.56;82.63
4745;BME280;2386;42.138;24.746;2023-05-07T07:26:38;99908.88;;;18.66;82.84
4745;BME280;2386;42.138;24.746;2023-05-07T07:29:05;99909.41;;;18.79;82.43
4745;BME280;2386;42.138;24.746;2023-05-07T07:31:30;99903.09;;;18.88;82.95
4745;BME280;2386;42.138;24.746;2023-05-07T07:33:56;99910.47;;;18.98;81.23
4745;BME280;2386;42.138;24.746;2023-05-07T07:36:21;99915.69;;;19.10;82.18
4745;BME280;2386;42.138;24.746;2023-05-07T07:38:47;99917.91;;;18.97;80.02
4745;BME280;2386;42.138;24.746;2023-05-07T07:41:12;99915.69;;;19.10;79.30
4745;BME280;2386;42.138;24.746;2023-05-07T07:43:37;99919.50;;;19.19;79.86
4745;BME280;2386;42.138;24.746;2023-05-07T07:46:03;99912.31;;;19.28;79.85
4745;BME280;2386;42.138;24.746;2023-05-07T07:48:28;99915.00;;;19.38;78.85
4745;BME280;2386;42.138;24.746;2023-05-07T07:50:54;99911.13;;;19.44;79.26
4745;BME280;2386;42.138;24.746;2023-05-07T07:53:19;99913.84;;;19.54;78.59
4745;BME280;2386;42.138;24.746;2023-05-07T07:55:44;99918.22;;;19.65;78.81
4745;BME280;2386;42.138;24.746;2023-05-07T07:58:10;99922.31;;;19.68;77.35
4745;BME280;2386;42.138;24.746;2023-05-07T08:00:36;99923.66;;;19.76;76.28
4745;BME280;2386;42.138;24.746;2023-05-07T08:03:01;99926.94;;;19.83;76.82
4745;BME280;2386;42.138;24.746;2023-05-07T08:05:28;99927.97;;;19.92;76.22
4745;BME280;2386;42.138;24.746;2023-05-07T08:07:53;99922.19;;;19.93;75.72
4745;BME280;2386;42.138;24.746;2023-05-07T08:10:19;99910.31;;;19.98;76.42
4745;BME280;2386;42.138;24.746;2023-05-07T08:12:50;99914.44;;;20.00;75.75
4745;BME280;2386;42.138;24.746;2023-05-07T08:15:16;99920.66;;;20.11;74.96
4745;BME280;2386;42.138;24.746;2023-05-07T08:17:43;99916.19;;;20.20;74.71
4745;BME280;2386;42.138;24.746;2023-05-07T08:20:08;99914.50;;;20.24;74.67
4745;BME280;2386;42.138;24.746;2023-05-07T08:22:35;99909.19;;;20.33;72.69
4745;BME280;2386;42.138;24.746;2023-05-07T08:25:01;99895.19;;;20.29;71.25
4745;BME280;2386;42.138;24.746;2023-05-07T08:27:26;99903.34;;;20.45;72.56
4745;BME280;2386;42.138;24.746;2023-05-07T08:29:52;99905.03;;;20.41;71.02
4745;BME280;2386;42.138;24.746;2023-05-07T08:32:17;99908.28;;;20.48;69.44
4745;BME280;2386;42.138;24.746;2023-05-07T08:34:42;99904.94;;;20.51;68.48
4745;BME280;2386;42.138;24.746;2023-05-07T08:37:08;99902.69;;;20.58;67.10
4745;BME280;2386;42.138;24.746;2023-05-07T08:39:33;99897.94;;;20.63;68.03
4745;BME280;2386;42.138;24.746;2023-05-07T08:42:00;99898.13;;;20.72;68.98
4745;BME280;2386;42.138;24.746;2023-05-07T08:44:28;99897.56;;;20.75;68.46
4745;BME280;2386;42.138;24.746;2023-05-07T08:46:56;99894.97;;;20.84;68.38
4745;BME280;2386;42.138;24.746;2023-05-07T08:49:21;99896.56;;;20.90;67.22
4745;BME280;2386;42.138;24.746;2023-05-07T08:51:47;99892.38;;;20.92;66.56
4745;BME280;2386;42.138;24.746;2023-05-07T08:54:15;99885.13;;;21.02;67.78
4745;BME280;2386;42.138;24.746;2023-05-07T08:56:41;99878.47;;;21.03;66.57
4745;BME280;2386;42.138;24.746;2023-05-07T08:59:07;99887.22;;;21.10;64.99
4745;BME280;2386;42.138;24.746;2023-05-07T09:01:32;99879.47;;;21.12;64.20
4745;BME280;2386;42.138;24.746;2023-05-07T09:04:00;99886.63;;;21.13;61.88
4745;BME280;2386;42.138;24.746;2023-05-07T09:06:26;99871.97;;;21.17;60.91
4745;BME280;2386;42.138;24.746;2023-05-07T09:08:53;99873.59;;;21.18;56.86
4745;BME280;2386;42.138;24.746;2023-05-07T09:11:22;99871.81;;;21.33;57.34
4745;BME280;2386;42.138;24.746;2023-05-07T09:13:48;99865.25;;;21.28;56.43
4745;BME280;2386;42.138;24.746;2023-05-07T09:16:14;99882.72;;;21.43;54.88
4745;BME280;2386;42.138;24.746;2023-05-07T09:18:41;99869.22;;;21.41;53.83
4745;BME280;2386;42.138;24.746;2023-05-07T09:21:09;99872.72;;;21.47;52.58
4745;BME280;2386;42.138;24.746;2023-05-07T09:23:35;99865.69;;;21.54;52.08
4745;BME280;2386;42.138;24.746;2023-05-07T09:26:00;99876.91;;;21.63;52.51
4745;BME280;2386;42.138;24.746;2023-05-07T09:28:27;99862.78;;;21.64;50.19
4745;BME280;2386;42.138;24.746;2023-05-07T09:30:52;99860.47;;;21.72;47.19
4745;BME280;2386;42.138;24.746;2023-05-07T09:33:18;99864.81;;;21.78;46.94
4745;BME280;2386;42.138;24.746;2023-05-07T09:35:43;99864.06;;;21.72;47.56
4745;BME280;2386;42.138;24.746;2023-05-07T09:38:08;99854.59;;;21.78;48.53
4745;BME280;2386;42.138;24.746;2023-05-07T09:40:34;99865.78;;;21.87;48.83
4745;BME280;2386;42.138;24.746;2023-05-07T09:43:11;99867.56;;;21.96;48.27
4745;BME280;2386;42.138;24.746;2023-05-07T09:45:38;99868.91;;;21.99;46.36
4745;BME280;2386;42.138;24.746;2023-05-07T09:48:05;99864.50;;;21.98;47.07
4745;BME280;2386;42.138;24.746;2023-05-07T09:50:48;99863.69;;;21.97;49.37
4745;BME280;2386;42.138;24.746;2023-05-07T09:53:14;99848.19;;;22.02;50.00
4745;BME280;2386;42.138;24.746;2023-05-07T09:55:40;99848.09;;;22.07;49.49
4745;BME280;2386;42.138;24.746;2023-05-07T09:58:06;99840.25;;;22.14;49.38
4745;BME280;2386;42.138;24.746;2023-05-07T10:00:33;99841.50;;;22.21;48.93
4745;BME280;2386;42.138;24.746;2023-05-07T10:02:59;99834.41;;;22.15;49.13
4745;BME280;2386;42.138;24.746;2023-05-07T10:05:27;99844.19;;;22.26;50.11
4745;BME280;2386;42.138;24.746;2023-05-07T10:07:52;99826.88;;;22.35;49.22
4745;BME280;2386;42.138;24.746;2023-05-07T10:10:18;99828.81;;;22.34;48.59
4745;BME280;2386;42.138;24.746;2023-05-07T10:12:44;99824.84;;;22.26;48.78
4745;BME280;2386;42.138;24.746;2023-05-07T10:15:11;99830.47;;;22.35;48.21
4745;BME280;2386;42.138;24.746;2023-05-07T10:17:37;99825.66;;;22.41;47.83
4745;BME280;2386;42.138;24.746;2023-05-07T10:20:04;99822.91;;;22.54;47.60
4745;BME280;2386;42.138;24.746;2023-05-07T10:22:38;99818.53;;;22.53;47.18
4745;BME280;2386;42.138;24.746;2023-05-07T10:25:09;99809.94;;;22.69;47.73
4745;BME280;2386;42.138;24.746;2023-05-07T10:27:39;99812.28;;;22.75;47.52
4745;BME280;2386;42.138;24.746;2023-05-07T10:32:59;99802.50;;;22.83;49.02
4745;BME280;2386;42.138;24.746;2023-05-07T10:35:37;99801.38;;;22.98;48.16
4745;BME280;2386;42.138;24.746;2023-05-07T10:38:03;99806.75;;;23.03;48.25
4745;BME280;2386;42.138;24.746;2023-05-07T10:40:30;99801.31;;;23.11;46.53
4745;BME280;2386;42.138;24.746;2023-05-07T10:42:58;99789.16;;;22.99;45.72
4745;BME280;2386;42.138;24.746;2023-05-07T10:45:25;99787.22;;;22.99;45.28
4745;BME280;2386;42.138;24.746;2023-05-07T10:50:33;99779.91;;;23.17;45.36
4745;BME280;2386;42.138;24.746;2023-05-07T10:55:48;99784.59;;;23.30;43.18
4745;BME280;2386;42.138;24.746;2023-05-07T10:58:29;99777.09;;;23.31;42.86
4745;BME280;2386;42.138;24.746;2023-05-07T11:00:59;99777.19;;;23.39;43.26
4745;BME280;2386;42.138;24.746;2023-05-07T11:03:26;99782.91;;;23.43;43.18
4745;BME280;2386;42.138;24.746;2023-05-07T11:11:19;99784.94;;;23.65;43.44
4745;BME280;2386;42.138;24.746;2023-05-07T11:13:48;99779.47;;;23.73;43.18
4745;BME280;2386;42.138;24.746;2023-05-07T11:16:21;99774.44;;;23.75;43.08
4745;BME280;2386;42.138;24.746;2023-05-07T11:18:48;99770.16;;;23.69;42.87
4745;BME280;2386;42.138;24.746;2023-05-07T11:21:32;99768.38;;;23.73;42.63
4745;BME280;2386;42.138;24.746;2023-05-07T11:23:58;99762.38;;;23.80;42.05
4745;BME280;2386;42.138;24.746;2023-05-07T11:26:24;99765.66;;;23.82;41.60
4745;BME280;2386;42.138;24.746;2023-05-07T11:28:51;99762.56;;;24.06;42.64
4745;BME280;2386;42.138;24.746;2023-05-07T11:31:21;99765.38;;;24.14;41.99
4745;BME280;2386;42.138;24.746;2023-05-07T11:33:48;99765.38;;;24.14;40.87
4745;BME280;2386;42.138;24.746;2023-05-07T11:36:14;99764.81;;;24.26;42.55
4745;BME280;2386;42.138;24.746;2023-05-07T11:38:40;99753.31;;;24.41;41.54
4745;BME280;2386;42.138;24.746;2023-05-07T11:41:06;99758.75;;;24.55;40.77
4745;BME280;2386;42.138;24.746;2023-05-07T11:43:32;99756.19;;;24.67;40.56
4745;BME280;2386;42.138;24.746;2023-05-07T11:46:08;99752.31;;;24.85;39.50
4745;BME280;2386;42.138;24.746;2023-05-07T11:48:33;99755.66;;;25.05;40.97
4745;BME280;2386;42.138;24.746;2023-05-07T11:51:00;99759.94;;;25.28;39.56
4745;BME280;2386;42.138;24.746;2023-05-07T11:53:27;99746.69;;;25.34;39.07
4745;BME280;2386;42.138;24.746;2023-05-07T11:55:55;99752.94;;;25.74;39.59
4745;BME280;2386;42.138;24.746;2023-05-07T11:58:22;99747.28;;;26.17;38.66
4745;BME280;2386;42.138;24.746;2023-05-07T12:00:52;99733.31;;;26.43;37.89
4745;BME280;2386;42.138;24.746;2023-05-07T12:03:19;99744.75;;;26.79;38.83
4745;BME280;2386;42.138;24.746;2023-05-07T12:05:45;99743.50;;;27.06;37.05
4745;BME280;2386;42.138;24.746;2023-05-07T12:08:15;99740.03;;;27.30;36.54
4745;BME280;2386;42.138;24.746;2023-05-07T12:10:45;99748.63;;;28.57;35.93
4745;BME280;2386;42.138;24.746;2023-05-07T12:13:21;99731.31;;;30.56;32.62
4745;BME280;2386;42.138;24.746;2023-05-07T12:15:50;99753.28;;;32.55;30.30
4745;BME280;2386;42.138;24.746;2023-05-07T12:18:16;99748.59;;;34.43;26.84
4745;BME280;2386;42.138;24.746;2023-05-07T12:20:41;99742.59;;;34.92;25.54
4745;BME280;2386;42.138;24.746;2023-05-07T12:23:07;99735.69;;;34.38;26.10
4745;BME280;2386;42.138;24.746;2023-05-07T12:25:37;99731.34;;;33.44;27.17
4745;BME280;2386;42.138;24.746;2023-05-07T12:28:03;99751.03;;;32.64;27.71
4745;BME280;2386;42.138;24.746;2023-05-07T12:30:31;99732.63;;;32.67;27.01
4745;BME280;2386;42.138;24.746;2023-05-07T12:32:57;99724.03;;;33.09;27.66
4745;BME280;2386;42.138;24.746;2023-05-07T12:35:30;99718.06;;;34.08;27.20
4745;BME280;2386;42.138;24.746;2023-05-07T12:37:57;99714.41;;;34.44;25.77
4745;BME280;2386;42.138;24.746;2023-05-07T12:40:35;99710.78;;;34.95;25.39
4745;BME280;2386;42.138;24.746;2023-05-07T12:43:00;99723.88;;;36.58;23.45
4745;BME280;2386;42.138;24.746;2023-05-07T12:45:26;99716.38;;;37.77;22.15
4745;BME280;2386;42.138;24.746;2023-05-07T12:47:51;99722.09;;;38.85;21.57
4745;BME280;2386;42.138;24.746;2023-05-07T12:50:17;99720.28;;;39.39;20.83
4745;BME280;2386;42.138;24.746;2023-05-07T12:52:43;99718.41;;;40.20;20.45
4745;BME280;2386;42.138;24.746;2023-05-07T12:55:12;99722.03;;;40.98;19.34
4745;BME280;2386;42.138;24.746;2023-05-07T12:57:40;99712.22;;;41.22;18.87
4745;BME280;2386;42.138;24.746;2023-05-07T13:00:06;99706.16;;;41.20;18.91
4745;BME280;2386;42.138;24.746;2023-05-07T13:02:33;99710.56;;;40.82;18.37
4745;BME280;2386;42.138;24.746;2023-05-07T13:04:59;99707.25;;;40.60;18.57
4745;BME280;2386;42.138;24.746;2023-05-07T13:07:25;99709.91;;;40.47;18.84
4745;BME280;2386;42.138;24.746;2023-05-07T13:09:50;99697.56;;;41.24;18.63
4745;BME280;2386;42.138;24.746;2023-05-07T13:12:16;99702.00;;;41.64;17.57
4745;BME280;2386;42.138;24.746;2023-05-07T13:14:41;99699.19;;;41.81;17.02